sensor_id;sensor_type;location;lat;lon;timestamp;P1;durP1;ratioP1;P2;durP2;ratioP2
55879;SDS011;41802;51.564;-1.838;2023-06-22T00:01:21;10.70;;;5.10;;
55879;SDS011;41802;51.564;-1.838;2023-06-22T00:03:49;9.00;;;4.23;;
55879;SDS011;41802;51.564;-1.838;2023-06-22T00:06:17;10.52;;;4.78;;
55879;SDS011;41802;51.564;-1.838;2023-06-22T00:08:46;12.20;;;4.80;;
55879;SDS011;41802;51.564;-1.838;2023-06-22T00:11:14;10.65;;;4.88;;
55879;SDS011;41802;51.564;-1.838;2023-06-22T00:13:42;13.98;;;5.05;;
55879;SDS011;41802;51.564;-1.838;2023-06-22T00:16:09;12.43;;;5.20;;
55879;SDS011;41802;51.564;-1.838;2023-06-22T00:18:37;11.63;;;4.78;;
55879;SDS011;41802;51.564;-1.838;2023-06-22T00:21:05;13.60;;;5.80;;
55879;SDS011;41802;51.564;-1.838;2023-06-22T00:23:33;11.85;;;6.03;;
55879;SDS011;41802;51.564;-1.838;2023-06-22T00:26:03;16.48;;;5.80;;
55879;SDS011;41802;51.564;-1.838;2023-06-22T00:28:31;12.20;;;5.27;;
55879;SDS011;41802;51.564;-1.838;2023-06-22T00:30:58;13.43;;;5.80;;
55879;SDS011;41802;51.564;-1.838;2023-06-22T00:33:27;11.50;;;5.65;;
55879;SDS011;41802;51.564;-1.838;2023-06-22T00:35:54;11.18;;;5.63;;
55879;SDS011;41802;51.564;-1.838;2023-06-22T00:38:22;12.45;;;5.50;;
55879;SDS011;41802;51.564;-1.838;2023-06-22T00:40:50;17.17;;;6.63;;
55879;SDS011;41802;51.564;-1.838;2023-06-22T00:43:19;13.60;;;6.38;;
55879;SDS011;41802;51.564;-1.838;2023-06-22T00:45:47;12.63;;;6.72;;
55879;SDS011;41802;51.564;-1.838;2023-06-22T00:48:15;14.75;;;6.22;;
55879;SDS011;41802;51.564;-1.838;2023-06-22T00:50:43;13.80;;;7.07;;
55879;SDS011;41802;51.564;-1.838;2023-06-22T00:53:11;16.77;;;8.00;;
55879;SDS011;41802;51.564;-1.838;2023-06-22T00:55:41;14.75;;;7.63;;
55879;SDS011;41802;51.564;-1.838;2023-06-22T00:58:09;15.45;;;6.88;;
55879;SDS011;41802;51.564;-1.838;2023-06-22T01:00:40;17.10;;;6.80;;
55879;SDS011;41802;51.564;-1.838;2023-06-22T01:03:08;13.23;;;7.20;;
55879;SDS011;41802;51.564;-1.838;2023-06-22T01:05:39;16.53;;;7.50;;
55879;SDS011;41802;51.564;-1.838;2023-06-22T01:08:13;17.52;;;7.45;;
55879;SDS011;41802;51.564;-1.838;2023-06-22T01:10:45;18.88;;;7.40;;
55879;SDS011;41802;51.564;-1.838;2023-06-22T01:13:16;16.55;;;7.53;;
55879;SDS011;41802;51.564;-1.838;2023-06-22T01:15:53;15.98;;;7.38;;
55879;SDS011;41802;51.564;-1.838;2023-06-22T01:18:23;16.87;;;7.53;;
55879;SDS011;41802;51.564;-1.838;2023-06-22T01:20:52;14.32;;;7.07;;
55879;SDS011;41802;51.564;-1.838;2023-06-22T01:23:26;15.75;;;7.18;;
55879;SDS011;41802;51.564;-1.838;2023-06-22T01:26:02;15.15;;;6.97;;
55879;SDS011;41802;51.564;-1.838;2023-06-22T01:28:46;15.30;;;7.90;;
55879;SDS011;41802;51.564;-1.838;2023-06-22T01:31:16;20.43;;;7.50;;
55879;SDS011;41802;51.564;-1.838;2023-06-22T01:33:45;20.90;;;7.53;;
55879;SDS011;41802;51.564;-1.838;2023-06-22T01:36:14;21.65;;;7.55;;
55879;SDS011;41802;51.564;-1.838;2023-06-22T01:38:42;19.48;;;7.93;;
55879;SDS011;41802;51.564;-1.838;2023-06-22T01:41:10;17.25;;;7.78;;
55879;SDS011;41802;51.564;-1.838;2023-06-22T01:43:38;17.40;;;7.80;;
55879;SDS011;41802;51.564;-1.838;2023-06-22T01:46:08;15.50;;;7.30;;
55879;SDS011;41802;51.564;-1.838;2023-06-22T01:48:36;16.98;;;7.40;;
55879;SDS011;41802;51.564;-1.838;2023-06-22T01:51:05;19.02;;;7.57;;
55879;SDS011;41802;51.564;-1.838;2023-06-22T01:53:32;16.98;;;8.07;;
55879;SDS011;41802;51.564;-1.838;2023-06-22T01:56:00;16.47;;;7.73;;
55879;SDS011;41802;51.564;-1.838;2023-06-22T01:58:29;16.63;;;7.88;;
55879;SDS011;41802;51.564;-1.838;2023-06-22T02:00:58;17.33;;;7.75;;
55879;SDS011;41802;51.564;-1.838;2023-06-22T02:03:31;17.90;;;8.10;;
55879;SDS011;41802;51.564;-1.838;2023-06-22T02:06:03;17.27;;;8.00;;
55879;SDS011;41802;51.564;-1.838;2023-06-22T02:08:32;20.63;;;8.77;;
55879;SDS011;41802;51.564;-1.838;2023-06-22T02:11:02;19.67;;;8.85;;
55879;SDS011;41802;51.564;-1.838;2023-06-22T02:13:31;23.42;;;8.93;;
55879;SDS011;41802;51.564;-1.838;2023-06-22T02:16:00;17.75;;;9.10;;
55879;SDS011;41802;51.564;-1.838;2023-06-22T02:18:28;21.80;;;9.80;;
55879;SDS011;41802;51.564;-1.838;2023-06-22T02:20:57;19.53;;;9.30;;
55879;SDS011;41802;51.564;-1.838;2023-06-22T02:23:25;21.50;;;8.70;;
55879;SDS011;41802;51.564;-1.838;2023-06-22T02:25:53;21.73;;;9.55;;
55879;SDS011;41802;51.564;-1.838;2023-06-22T02:28:21;20.45;;;9.68;;
55879;SDS011;41802;51.564;-1.838;2023-06-22T02:30:49;22.23;;;10.45;;
55879;SDS011;41802;51.564;-1.838;2023-06-22T02:33:18;21.50;;;10.67;;
55879;SDS011;41802;51.564;-1.838;2023-06-22T02:35:46;25.10;;;9.93;;
55879;SDS011;41802;51.564;-1.838;2023-06-22T02:38:16;22.17;;;10.23;;
55879;SDS011;41802;51.564;-1.838;2023-06-22T02:40:45;22.92;;;10.95;;
55879;SDS011;41802;51.564;-1.838;2023-06-22T02:43:13;27.50;;;10.70;;
55879;SDS011;41802;51.564;-1.838;2023-06-22T02:45:41;23.53;;;10.20;;
55879;SDS011;41802;51.564;-1.838;2023-06-22T02:48:08;25.40;;;10.75;;
55879;SDS011;41802;51.564;-1.838;2023-06-22T02:50:37;22.75;;;10.15;;
55879;SDS011;41802;51.564;-1.838;2023-06-22T02:53:05;23.63;;;11.02;;
55879;SDS011;41802;51.564;-1.838;2023-06-22T02:55:34;23.80;;;10.25;;
55879;SDS011;41802;51.564;-1.838;2023-06-22T02:58:02;26.90;;;10.97;;
55879;SDS011;41802;51.564;-1.838;2023-06-22T03:00:31;26.92;;;11.43;;
55879;SDS011;41802;51.564;-1.838;2023-06-22T03:02:59;25.67;;;10.73;;
55879;SDS011;41802;51.564;-1.838;2023-06-22T03:05:27;25.98;;;11.77;;
55879;SDS011;41802;51.564;-1.838;2023-06-22T03:07:55;24.27;;;11.52;;
55879;SDS011;41802;51.564;-1.838;2023-06-22T03:10:22;27.67;;;11.63;;
55879;SDS011;41802;51.564;-1.838;2023-06-22T03:12:52;24.35;;;11.23;;
55879;SDS011;41802;51.564;-1.838;2023-06-22T03:15:19;22.45;;;11.07;;
55879;SDS011;41802;51.564;-1.838;2023-06-22T03:17:48;24.05;;;11.27;;
55879;SDS011;41802;51.564;-1.838;2023-06-22T03:20:16;25.00;;;10.82;;
55879;SDS011;41802;51.564;-1.838;2023-06-22T03:22:45;27.37;;;12.83;;
55879;SDS011;41802;51.564;-1.838;2023-06-22T03:25:15;24.60;;;11.30;;
55879;SDS011;41802;51.564;-1.838;2023-06-22T03:27:43;29.25;;;12.18;;
55879;SDS011;41802;51.564;-1.838;2023-06-22T03:30:12;30.50;;;12.25;;
55879;SDS011;41802;51.564;-1.838;2023-06-22T03:32:40;28.90;;;12.63;;
55879;SDS011;41802;51.564;-1.838;2023-06-22T03:35:09;31.83;;;12.73;;
55879;SDS011;41802;51.564;-1.838;2023-06-22T03:37:39;30.98;;;12.45;;
55879;SDS011;41802;51.564;-1.838;2023-06-22T03:40:07;30.60;;;13.20;;
55879;SDS011;41802;51.564;-1.838;2023-06-22T03:42:35;28.10;;;12.48;;
55879;SDS011;41802;51.564;-1.838;2023-06-22T03:45:03;30.80;;;13.80;;
55879;SDS011;41802;51.564;-1.838;2023-06-22T03:47:33;27.00;;;12.13;;
55879;SDS011;41802;51.564;-1.838;2023-06-22T03:50:01;28.17;;;12.85;;
55879;SDS011;41802;51.564;-1.838;2023-06-22T03:52:30;28.83;;;13.55;;
55879;SDS011;41802;51.564;-1.838;2023-06-22T03:54:57;29.40;;;13.15;;
55879;SDS011;41802;51.564;-1.838;2023-06-22T03:57:25;31.20;;;13.93;;
55879;SDS011;41802;51.564;-1.838;2023-06-22T03:59:54;33.37;;;14.40;;
55879;SDS011;41802;51.564;-1.838;2023-06-22T04:02:21;29.27;;;13.70;;
55879;SDS011;41802;51.564;-1.838;2023-06-22T04:04:51;31.15;;;13.85;;
55879;SDS011;41802;51.564;-1.838;2023-06-22T04:07:19;39.25;;;15.57;;
55879;SDS011;41802;51.564;-1.838;2023-06-22T04:09:46;33.20;;;13.45;;
55879;SDS011;41802;51.564;-1.838;2023-06-22T04:12:14;27.53;;;13.37;;
55879;SDS011;41802;51.564;-1.838;2023-06-22T04:14:42;30.13;;;13.82;;
55879;SDS011;41802;51.564;-1.838;2023-06-22T04:17:11;27.95;;;14.13;;
55879;SDS011;41802;51.564;-1.838;2023-06-22T04:19:41;27.40;;;13.90;;
55879;SDS011;41802;51.564;-1.838;2023-06-22T04:22:10;28.95;;;13.80;;
55879;SDS011;41802;51.564;-1.838;2023-06-22T04:24:38;27.40;;;13.43;;
55879;SDS011;41802;51.564;-1.838;2023-06-22T04:27:06;32.47;;;13.50;;
55879;SDS011;41802;51.564;-1.838;2023-06-22T04:29:34;27.58;;;12.65;;
55879;SDS011;41802;51.564;-1.838;2023-06-22T04:32:01;27.55;;;13.07;;
55879;SDS011;41802;51.564;-1.838;2023-06-22T04:34:32;25.83;;;13.32;;
55879;SDS011;41802;51.564;-1.838;2023-06-22T04:36:59;31.90;;;13.20;;
55879;SDS011;41802;51.564;-1.838;2023-06-22T04:39:28;26.58;;;12.52;;
55879;SDS011;41802;51.564;-1.838;2023-06-22T04:41:56;31.88;;;13.00;;
55879;SDS011;41802;51.564;-1.838;2023-06-22T04:44:27;30.88;;;13.73;;
55879;SDS011;41802;51.564;-1.838;2023-06-22T04:46:55;27.88;;;12.70;;
55879;SDS011;41802;51.564;-1.838;2023-06-22T04:49:28;28.77;;;12.93;;
55879;SDS011;41802;51.564;-1.838;2023-06-22T04:51:59;27.33;;;12.07;;
55879;SDS011;41802;51.564;-1.838;2023-06-22T04:54:28;26.48;;;12.18;;
55879;SDS011;41802;51.564;-1.838;2023-06-22T04:56:59;27.63;;;12.68;;
55879;SDS011;41802;51.564;-1.838;2023-06-22T04:59:29;24.13;;;12.18;;
55879;SDS011;41802;51.564;-1.838;2023-06-22T05:01:57;31.93;;;13.87;;
55879;SDS011;41802;51.564;-1.838;2023-06-22T05:04:25;26.27;;;12.13;;
55879;SDS011;41802;51.564;-1.838;2023-06-22T05:06:54;25.73;;;12.20;;
55879;SDS011;41802;51.564;-1.838;2023-06-22T05:09:22;27.67;;;12.18;;
55879;SDS011;41802;51.564;-1.838;2023-06-22T05:11:53;26.58;;;12.48;;
55879;SDS011;41802;51.564;-1.838;2023-06-22T05:14:20;28.87;;;12.73;;
55879;SDS011;41802;51.564;-1.838;2023-06-22T05:16:48;27.10;;;12.82;;
55879;SDS011;41802;51.564;-1.838;2023-06-22T05:19:18;29.17;;;12.60;;
55879;SDS011;41802;51.564;-1.838;2023-06-22T05:21:46;28.58;;;13.65;;
55879;SDS011;41802;51.564;-1.838;2023-06-22T05:24:13;24.30;;;12.15;;
55879;SDS011;41802;51.564;-1.838;2023-06-22T05:26:41;28.43;;;12.60;;
55879;SDS011;41802;51.564;-1.838;2023-06-22T05:29:12;26.30;;;12.32;;
55879;SDS011;41802;51.564;-1.838;2023-06-22T05:31:39;24.13;;;11.77;;
55879;SDS011;41802;51.564;-1.838;2023-06-22T05:34:08;31.05;;;13.55;;
55879;SDS011;41802;51.564;-1.838;2023-06-22T05:36:35;27.95;;;12.93;;
55879;SDS011;41802;51.564;-1.838;2023-06-22T05:39:10;28.30;;;12.20;;
55879;SDS011;41802;51.564;-1.838;2023-06-22T05:41:39;28.80;;;12.77;;
55879;SDS011;41802;51.564;-1.838;2023-06-22T05:44:06;27.58;;;12.07;;
55879;SDS011;41802;51.564;-1.838;2023-06-22T05:46:35;27.00;;;12.05;;
55879;SDS011;41802;51.564;-1.838;2023-06-22T05:49:07;25.52;;;11.80;;
55879;SDS011;41802;51.564;-1.838;2023-06-22T05:51:35;25.17;;;11.73;;
55879;SDS011;41802;51.564;-1.838;2023-06-22T05:54:03;25.95;;;12.50;;
55879;SDS011;41802;51.564;-1.838;2023-06-22T05:56:32;26.75;;;13.27;;
55879;SDS011;41802;51.564;-1.838;2023-06-22T05:59:00;26.73;;;12.13;;
55879;SDS011;41802;51.564;-1.838;2023-06-22T06:01:28;25.15;;;11.85;;
55879;SDS011;41802;51.564;-1.838;2023-06-22T06:04:03;30.07;;;13.80;;
55879;SDS011;41802;51.564;-1.838;2023-06-22T06:06:31;28.27;;;12.55;;
55879;SDS011;41802;51.564;-1.838;2023-06-22T06:09:01;27.55;;;13.05;;
55879;SDS011;41802;51.564;-1.838;2023-06-22T06:11:29;28.63;;;12.98;;
55879;SDS011;41802;51.564;-1.838;2023-06-22T06:13:57;30.17;;;13.57;;
55879;SDS011;41802;51.564;-1.838;2023-06-22T06:16:25;28.40;;;12.57;;
55879;SDS011;41802;51.564;-1.838;2023-06-22T06:18:53;27.55;;;12.77;;
55879;SDS011;41802;51.564;-1.838;2023-06-22T06:21:23;27.40;;;13.13;;
55879;SDS011;41802;51.564;-1.838;2023-06-22T06:23:53;26.05;;;12.82;;
55879;SDS011;41802;51.564;-1.838;2023-06-22T06:26:20;28.38;;;13.52;;
55879;SDS011;41802;51.564;-1.838;2023-06-22T06:28:56;26.10;;;12.50;;
55879;SDS011;41802;51.564;-1.838;2023-06-22T06:31:24;25.70;;;12.15;;
55879;SDS011;41802;51.564;-1.838;2023-06-22T06:33:55;28.65;;;12.77;;
55879;SDS011;41802;51.564;-1.838;2023-06-22T06:36:24;27.85;;;12.57;;
55879;SDS011;41802;51.564;-1.838;2023-06-22T06:38:53;30.08;;;13.27;;
55879;SDS011;41802;51.564;-1.838;2023-06-22T06:41:21;31.63;;;12.43;;
55879;SDS011;41802;51.564;-1.838;2023-06-22T06:43:49;31.65;;;14.40;;
55879;SDS011;41802;51.564;-1.838;2023-06-22T06:46:18;36.42;;;14.77;;
55879;SDS011;41802;51.564;-1.838;2023-06-22T06:48:46;34.40;;;14.77;;
55879;SDS011;41802;51.564;-1.838;2023-06-22T06:51:14;34.08;;;14.48;;
55879;SDS011;41802;51.564;-1.838;2023-06-22T06:53:43;31.92;;;12.90;;
55879;SDS011;41802;51.564;-1.838;2023-06-22T06:56:11;34.43;;;14.47;;
55879;SDS011;41802;51.564;-1.838;2023-06-22T06:58:40;32.83;;;12.00;;
55879;SDS011;41802;51.564;-1.838;2023-06-22T07:01:08;29.33;;;12.80;;
55879;SDS011;41802;51.564;-1.838;2023-06-22T07:03:36;33.20;;;12.40;;
55879;SDS011;41802;51.564;-1.838;2023-06-22T07:06:04;28.80;;;13.25;;
55879;SDS011;41802;51.564;-1.838;2023-06-22T07:08:32;32.53;;;12.77;;
55879;SDS011;41802;51.564;-1.838;2023-06-22T07:11:01;27.23;;;11.75;;
55879;SDS011;41802;51.564;-1.838;2023-06-22T07:13:28;24.25;;;12.05;;
55879;SDS011;41802;51.564;-1.838;2023-06-22T07:15:56;29.30;;;12.05;;
55879;SDS011;41802;51.564;-1.838;2023-06-22T07:18:24;27.35;;;12.13;;
55879;SDS011;41802;51.564;-1.838;2023-06-22T07:20:53;27.60;;;11.70;;
55879;SDS011;41802;51.564;-1.838;2023-06-22T07:23:21;25.38;;;11.45;;
55879;SDS011;41802;51.564;-1.838;2023-06-22T07:25:48;22.42;;;10.40;;
55879;SDS011;41802;51.564;-1.838;2023-06-22T07:28:18;17.27;;;7.97;;
55879;SDS011;41802;51.564;-1.838;2023-06-22T07:31:06;15.65;;;6.85;;
55879;SDS011;41802;51.564;-1.838;2023-06-22T07:33:34;15.00;;;7.30;;
55879;SDS011;41802;51.564;-1.838;2023-06-22T07:36:02;18.13;;;7.80;;
55879;SDS011;41802;51.564;-1.838;2023-06-22T07:38:34;13.55;;;6.30;;
55879;SDS011;41802;51.564;-1.838;2023-06-22T07:41:02;14.80;;;6.93;;
55879;SDS011;41802;51.564;-1.838;2023-06-22T07:43:33;15.50;;;7.25;;
55879;SDS011;41802;51.564;-1.838;2023-06-22T07:46:04;17.07;;;7.87;;
55879;SDS011;41802;51.564;-1.838;2023-06-22T07:48:32;16.33;;;7.47;;
55879;SDS011;41802;51.564;-1.838;2023-06-22T07:50:59;15.32;;;7.78;;
55879;SDS011;41802;51.564;-1.838;2023-06-22T07:53:27;18.05;;;7.38;;
55879;SDS011;41802;51.564;-1.838;2023-06-22T07:55:55;12.50;;;6.65;;
55879;SDS011;41802;51.564;-1.838;2023-06-22T07:58:23;14.37;;;6.50;;
55879;SDS011;41802;51.564;-1.838;2023-06-22T08:00:52;13.70;;;7.20;;
55879;SDS011;41802;51.564;-1.838;2023-06-22T08:03:20;16.15;;;7.40;;
55879;SDS011;41802;51.564;-1.838;2023-06-22T08:05:47;13.82;;;7.28;;
55879;SDS011;41802;51.564;-1.838;2023-06-22T08:08:16;13.80;;;7.15;;
55879;SDS011;41802;51.564;-1.838;2023-06-22T08:10:46;14.10;;;7.20;;
55879;SDS011;41802;51.564;-1.838;2023-06-22T08:13:14;12.75;;;6.03;;
55879;SDS011;41802;51.564;-1.838;2023-06-22T08:15:42;13.77;;;6.75;;
55879;SDS011;41802;51.564;-1.838;2023-06-22T08:18:11;10.45;;;5.05;;
55879;SDS011;41802;51.564;-1.838;2023-06-22T08:20:39;11.88;;;6.25;;
55879;SDS011;41802;51.564;-1.838;2023-06-22T08:23:07;11.33;;;5.87;;
55879;SDS011;41802;51.564;-1.838;2023-06-22T08:25:36;12.07;;;6.10;;
55879;SDS011;41802;51.564;-1.838;2023-06-22T08:28:09;16.52;;;6.82;;
55879;SDS011;41802;51.564;-1.838;2023-06-22T08:30:36;9.48;;;4.20;;
55879;SDS011;41802;51.564;-1.838;2023-06-22T08:33:04;13.32;;;6.38;;
55879;SDS011;41802;51.564;-1.838;2023-06-22T08:35:33;11.67;;;4.50;;
55879;SDS011;41802;51.564;-1.838;2023-06-22T08:38:01;11.13;;;5.70;;
55879;SDS011;41802;51.564;-1.838;2023-06-22T08:40:29;9.85;;;5.55;;
55879;SDS011;41802;51.564;-1.838;2023-06-22T08:42:57;8.77;;;4.15;;
55879;SDS011;41802;51.564;-1.838;2023-06-22T08:45:25;7.35;;;4.28;;
55879;SDS011;41802;51.564;-1.838;2023-06-22T08:47:55;10.03;;;5.67;;
55879;SDS011;41802;51.564;-1.838;2023-06-22T08:50:23;7.85;;;3.95;;
55879;SDS011;41802;51.564;-1.838;2023-06-22T08:52:53;11.10;;;5.40;;
55879;SDS011;41802;51.564;-1.838;2023-06-22T08:55:24;9.32;;;4.53;;
55879;SDS011;41802;51.564;-1.838;2023-06-22T08:57:52;9.00;;;4.47;;
55879;SDS011;41802;51.564;-1.838;2023-06-22T09:00:20;10.10;;;4.10;;
55879;SDS011;41802;51.564;-1.838;2023-06-22T09:02:48;9.65;;;4.78;;
55879;SDS011;41802;51.564;-1.838;2023-06-22T09:05:16;10.95;;;4.82;;
55879;SDS011;41802;51.564;-1.838;2023-06-22T09:07:44;8.57;;;4.72;;
55879;SDS011;41802;51.564;-1.838;2023-06-22T09:10:14;9.15;;;4.80;;
55879;SDS011;41802;51.564;-1.838;2023-06-22T09:12:41;11.87;;;5.27;;
55879;SDS011;41802;51.564;-1.838;2023-06-22T09:15:09;9.90;;;4.88;;
55879;SDS011;41802;51.564;-1.838;2023-06-22T09:17:43;9.48;;;4.57;;
55879;SDS011;41802;51.564;-1.838;2023-06-22T09:20:13;9.30;;;4.55;;
55879;SDS011;41802;51.564;-1.838;2023-06-22T09:22:43;11.10;;;4.80;;
55879;SDS011;41802;51.564;-1.838;2023-06-22T09:25:13;9.87;;;4.90;;
55879;SDS011;41802;51.564;-1.838;2023-06-22T09:27:42;9.40;;;4.43;;
55879;SDS011;41802;51.564;-1.838;2023-06-22T09:30:10;9.63;;;4.22;;
55879;SDS011;41802;51.564;-1.838;2023-06-22T09:32:38;11.57;;;3.90;;
55879;SDS011;41802;51.564;-1.838;2023-06-22T09:35:06;9.02;;;4.30;;
55879;SDS011;41802;51.564;-1.838;2023-06-22T09:37:35;9.13;;;4.63;;
55879;SDS011;41802;51.564;-1.838;2023-06-22T09:40:03;8.50;;;4.60;;
55879;SDS011;41802;51.564;-1.838;2023-06-22T09:42:35;10.52;;;4.07;;
55879;SDS011;41802;51.564;-1.838;2023-06-22T09:45:05;6.95;;;3.60;;
55879;SDS011;41802;51.564;-1.838;2023-06-22T09:47:33;9.35;;;4.30;;
55879;SDS011;41802;51.564;-1.838;2023-06-22T09:50:05;8.80;;;4.17;;
55879;SDS011;41802;51.564;-1.838;2023-06-22T09:52:33;8.73;;;4.50;;
55879;SDS011;41802;51.564;-1.838;2023-06-22T09:55:14;9.05;;;4.18;;
55879;SDS011;41802;51.564;-1.838;2023-06-22T09:57:42;8.55;;;3.75;;
55879;SDS011;41802;51.564;-1.838;2023-06-22T10:00:12;10.52;;;4.65;;
55879;SDS011;41802;51.564;-1.838;2023-06-22T10:02:42;8.37;;;3.50;;
55879;SDS011;41802;51.564;-1.838;2023-06-22T10:05:10;11.13;;;4.07;;
55879;SDS011;41802;51.564;-1.838;2023-06-22T10:07:39;10.15;;;4.05;;
55879;SDS011;41802;51.564;-1.838;2023-06-22T10:10:09;7.72;;;4.05;;
55879;SDS011;41802;51.564;-1.838;2023-06-22T10:12:40;11.38;;;3.95;;
55879;SDS011;41802;51.564;-1.838;2023-06-22T10:15:09;7.63;;;4.00;;
55879;SDS011;41802;51.564;-1.838;2023-06-22T10:17:38;6.03;;;3.10;;
55879;SDS011;41802;51.564;-1.838;2023-06-22T10:20:07;9.98;;;3.03;;
55879;SDS011;41802;51.564;-1.838;2023-06-22T10:22:38;7.78;;;4.00;;
55879;SDS011;41802;51.564;-1.838;2023-06-22T10:25:12;7.18;;;3.20;;
55879;SDS011;41802;51.564;-1.838;2023-06-22T10:27:41;7.07;;;3.20;;
55879;SDS011;41802;51.564;-1.838;2023-06-22T10:30:10;7.95;;;3.70;;
55879;SDS011;41802;51.564;-1.838;2023-06-22T10:32:41;9.55;;;3.70;;
55879;SDS011;41802;51.564;-1.838;2023-06-22T10:35:10;7.15;;;3.45;;
55879;SDS011;41802;51.564;-1.838;2023-06-22T10:37:40;8.18;;;3.97;;
55879;SDS011;41802;51.564;-1.838;2023-06-22T10:40:10;7.33;;;3.43;;
55879;SDS011;41802;51.564;-1.838;2023-06-22T10:42:38;8.10;;;3.78;;
55879;SDS011;41802;51.564;-1.838;2023-06-22T10:45:06;7.53;;;3.67;;
55879;SDS011;41802;51.564;-1.838;2023-06-22T10:47:34;6.60;;;3.65;;
55879;SDS011;41802;51.564;-1.838;2023-06-22T10:50:04;7.93;;;3.33;;
55879;SDS011;41802;51.564;-1.838;2023-06-22T10:52:32;8.07;;;3.70;;
55879;SDS011;41802;51.564;-1.838;2023-06-22T10:55:01;7.22;;;3.63;;
55879;SDS011;41802;51.564;-1.838;2023-06-22T10:57:29;6.75;;;3.33;;
55879;SDS011;41802;51.564;-1.838;2023-06-22T10:59:57;7.72;;;3.05;;
55879;SDS011;41802;51.564;-1.838;2023-06-22T11:02:25;6.30;;;3.42;;
55879;SDS011;41802;51.564;-1.838;2023-06-22T11:04:55;6.07;;;3.13;;
55879;SDS011;41802;51.564;-1.838;2023-06-22T11:07:24;8.00;;;3.78;;
55879;SDS011;41802;51.564;-1.838;2023-06-22T11:09:53;7.53;;;3.35;;
55879;SDS011;41802;51.564;-1.838;2023-06-22T11:12:21;6.93;;;3.47;;
55879;SDS011;41802;51.564;-1.838;2023-06-22T11:14:48;8.20;;;3.67;;
55879;SDS011;41802;51.564;-1.838;2023-06-22T11:17:18;8.77;;;4.23;;
55879;SDS011;41802;51.564;-1.838;2023-06-22T11:19:46;10.40;;;3.80;;
55879;SDS011;41802;51.564;-1.838;2023-06-22T11:22:14;8.60;;;3.30;;
55879;SDS011;41802;51.564;-1.838;2023-06-22T11:24:43;7.25;;;4.00;;
55879;SDS011;41802;51.564;-1.838;2023-06-22T11:27:10;7.82;;;3.70;;
55879;SDS011;41802;51.564;-1.838;2023-06-22T11:29:38;7.57;;;3.37;;
55879;SDS011;41802;51.564;-1.838;2023-06-22T11:32:07;8.07;;;3.83;;
55879;SDS011;41802;51.564;-1.838;2023-06-22T11:34:37;8.63;;;3.00;;
55879;SDS011;41802;51.564;-1.838;2023-06-22T11:37:05;7.72;;;3.38;;
55879;SDS011;41802;51.564;-1.838;2023-06-22T11:39:33;7.38;;;3.38;;
55879;SDS011;41802;51.564;-1.838;2023-06-22T11:42:16;8.17;;;3.47;;
55879;SDS011;41802;51.564;-1.838;2023-06-22T11:44:43;6.60;;;3.30;;
55879;SDS011;41802;51.564;-1.838;2023-06-22T11:47:11;9.20;;;3.13;;
55879;SDS011;41802;51.564;-1.838;2023-06-22T11:49:39;6.50;;;3.40;;
55879;SDS011;41802;51.564;-1.838;2023-06-22T11:52:07;7.18;;;3.20;;
55879;SDS011;41802;51.564;-1.838;2023-06-22T11:54:35;7.13;;;3.53;;
55879;SDS011;41802;51.564;-1.838;2023-06-22T11:57:04;6.55;;;3.17;;
55879;SDS011;41802;51.564;-1.838;2023-06-22T11:59:33;6.20;;;3.05;;
55879;SDS011;41802;51.564;-1.838;2023-06-22T12:02:00;7.30;;;3.30;;
55879;SDS011;41802;51.564;-1.838;2023-06-22T12:04:28;7.43;;;3.65;;
55879;SDS011;41802;51.564;-1.838;2023-06-22T12:06:56;6.50;;;3.53;;
55879;SDS011;41802;51.564;-1.838;2023-06-22T12:09:25;6.93;;;3.22;;
55879;SDS011;41802;51.564;-1.838;2023-06-22T12:11:53;6.45;;;3.83;;
55879;SDS011;41802;51.564;-1.838;2023-06-22T12:14:21;6.65;;;3.25;;
55879;SDS011;41802;51.564;-1.838;2023-06-22T12:16:50;6.68;;;3.92;;
55879;SDS011;41802;51.564;-1.838;2023-06-22T12:19:18;8.17;;;3.43;;
55879;SDS011;41802;51.564;-1.838;2023-06-22T12:21:46;8.38;;;3.53;;
55879;SDS011;41802;51.564;-1.838;2023-06-22T12:24:13;8.73;;;3.67;;
55879;SDS011;41802;51.564;-1.838;2023-06-22T12:26:41;7.20;;;4.00;;
55879;SDS011;41802;51.564;-1.838;2023-06-22T12:29:11;8.52;;;4.15;;
55879;SDS011;41802;51.564;-1.838;2023-06-22T12:31:38;10.60;;;3.57;;
55879;SDS011;41802;51.564;-1.838;2023-06-22T12:34:09;8.38;;;3.45;;
55879;SDS011;41802;51.564;-1.838;2023-06-22T12:36:37;7.82;;;3.15;;
55879;SDS011;41802;51.564;-1.838;2023-06-22T12:39:05;6.75;;;3.42;;
55879;SDS011;41802;51.564;-1.838;2023-06-22T12:41:33;8.43;;;3.20;;
55879;SDS011;41802;51.564;-1.838;2023-06-22T12:44:00;8.40;;;4.00;;
55879;SDS011;41802;51.564;-1.838;2023-06-22T12:46:28;9.10;;;3.90;;
55879;SDS011;41802;51.564;-1.838;2023-06-22T12:48:57;7.25;;;3.70;;
55879;SDS011;41802;51.564;-1.838;2023-06-22T12:51:28;6.43;;;3.15;;
55879;SDS011;41802;51.564;-1.838;2023-06-22T12:53:56;6.65;;;3.50;;
55879;SDS011;41802;51.564;-1.838;2023-06-22T12:56:24;8.93;;;3.53;;
55879;SDS011;41802;51.564;-1.838;2023-06-22T12:58:52;7.85;;;3.67;;
55879;SDS011;41802;51.564;-1.838;2023-06-22T13:01:20;7.32;;;3.45;;
55879;SDS011;41802;51.564;-1.838;2023-06-22T13:03:49;10.38;;;4.40;;
55879;SDS011;41802;51.564;-1.838;2023-06-22T13:06:17;7.53;;;4.00;;
55879;SDS011;41802;51.564;-1.838;2023-06-22T13:08:46;7.50;;;3.13;;
55879;SDS011;41802;51.564;-1.838;2023-06-22T13:11:17;7.53;;;3.30;;
55879;SDS011;41802;51.564;-1.838;2023-06-22T13:13:45;7.15;;;3.40;;
55879;SDS011;41802;51.564;-1.838;2023-06-22T13:16:13;7.72;;;3.72;;
55879;SDS011;41802;51.564;-1.838;2023-06-22T13:18:41;7.47;;;3.75;;
55879;SDS011;41802;51.564;-1.838;2023-06-22T13:21:09;9.30;;;3.77;;
55879;SDS011;41802;51.564;-1.838;2023-06-22T13:23:36;7.53;;;3.92;;
55879;SDS011;41802;51.564;-1.838;2023-06-22T13:26:07;11.27;;;3.75;;
55879;SDS011;41802;51.564;-1.838;2023-06-22T13:28:35;6.68;;;3.60;;
55879;SDS011;41802;51.564;-1.838;2023-06-22T13:31:02;7.70;;;3.78;;
55879;SDS011;41802;51.564;-1.838;2023-06-22T13:33:30;7.87;;;3.40;;
55879;SDS011;41802;51.564;-1.838;2023-06-22T13:35:58;7.15;;;3.42;;
55879;SDS011;41802;51.564;-1.838;2023-06-22T13:38:27;13.07;;;3.50;;
55879;SDS011;41802;51.564;-1.838;2023-06-22T13:40:55;6.45;;;3.03;;
55879;SDS011;41802;51.564;-1.838;2023-06-22T13:43:26;6.65;;;3.30;;
55879;SDS011;41802;51.564;-1.838;2023-06-22T13:45:54;7.17;;;2.97;;
55879;SDS011;41802;51.564;-1.838;2023-06-22T13:48:22;6.35;;;2.90;;
55879;SDS011;41802;51.564;-1.838;2023-06-22T13:50:50;6.20;;;2.95;;
55879;SDS011;41802;51.564;-1.838;2023-06-22T13:53:17;6.43;;;3.35;;
55879;SDS011;41802;51.564;-1.838;2023-06-22T13:55:45;7.43;;;3.35;;
55879;SDS011;41802;51.564;-1.838;2023-06-22T13:58:14;7.33;;;3.43;;
55879;SDS011;41802;51.564;-1.838;2023-06-22T14:00:43;8.80;;;3.17;;
55879;SDS011;41802;51.564;-1.838;2023-06-22T14:03:11;5.85;;;3.00;;
55879;SDS011;41802;51.564;-1.838;2023-06-22T14:05:42;6.65;;;3.45;;
55879;SDS011;41802;51.564;-1.838;2023-06-22T14:08:10;8.32;;;3.58;;
55879;SDS011;41802;51.564;-1.838;2023-06-22T14:10:57;7.97;;;3.27;;
55879;SDS011;41802;51.564;-1.838;2023-06-22T14:13:25;6.72;;;3.30;;
55879;SDS011;41802;51.564;-1.838;2023-06-22T14:15:54;5.80;;;3.10;;
55879;SDS011;41802;51.564;-1.838;2023-06-22T14:18:22;7.03;;;3.60;;
55879;SDS011;41802;51.564;-1.838;2023-06-22T14:20:50;6.43;;;3.45;;
55879;SDS011;41802;51.564;-1.838;2023-06-22T14:23:18;8.27;;;3.17;;
55879;SDS011;41802;51.564;-1.838;2023-06-22T14:25:45;6.20;;;2.58;;
55879;SDS011;41802;51.564;-1.838;2023-06-22T14:28:13;5.65;;;2.90;;
55879;SDS011;41802;51.564;-1.838;2023-06-22T14:30:42;6.50;;;3.00;;